Zia Pueblo, New Mexico
Current Conditions -  °F | °C
As of 4:35 AM on Sunday 23 Nov 2014 (Local Time) from KAEG Reporting Station
Clear Clear  
Wind Chill: 32°   Ceiling: Unl
Heat Index: 40°   Visibility: 10mi
Dew Point: 19°   Wind: 13mph
Humidity: 44%   Direction: 250°WSW
Pressure: 29.79"   Gusts: NA
Location:  35.5626°N, 106.824°W
Report Text: KAEG 231135Z AUTO 25011KT 10SM CLR 04/M07 A2979 RMK AO2 T00421072
Loading
Personal Weather Stations






























Interactive Weather Map New forecast layout! Learn more

10-Day Weather Forecast

Advertisements
Track Severe Weather on mobile